TAP1687 LPPT-LPMA
Flight info
| Callsign | TAP1687 |
|---|---|
| Flight time | 1h 46m |
| Altitude | 37000 |
| Route | ULVOT DCT GALPA DCT RAKUN |
| Aircraft | A320/M-SDE3FGHIRWY/LB1 |
Departure
| Time | 2026-05-04 08:46 |
|---|---|
| Airport | Lisbon Humberto Delgado Airport (LPPT) |
Arrival
| Time | 2026-05-04 10:32 |
|---|---|
| Airport | Cristiano Ronaldo International Airport (LPMA) |
| Time | Latitude | Longitude | Altitude | Speed | Heading |
|---|---|---|---|---|---|
| 2026-05-04 08:16 | 38.76892 | -9.13050 | 337 ft | 0 kts | 78° |
| 2026-05-04 08:37 | 38.76891 | -9.13053 | 337 ft | 1 kts | 78° |
| 2026-05-04 08:37 | 38.76888 | -9.13074 | 333 ft | 3 kts | 76° |
| 2026-05-04 08:38 | 38.76882 | -9.13099 | 336 ft | 3 kts | 77° |
| 2026-05-04 08:38 | 38.76879 | -9.13124 | 337 ft | 3 kts | 99° |
| 2026-05-04 08:38 | 38.76882 | -9.13139 | 337 ft | 2 kts | 164° |
| 2026-05-04 08:40 | 38.76885 | -9.13140 | 337 ft | 0 kts | 168° |
| 2026-05-04 08:40 | 38.76873 | -9.13137 | 335 ft | 3 kts | 169° |
| 2026-05-04 08:40 | 38.76849 | -9.13131 | 339 ft | 7 kts | 168° |
| 2026-05-04 08:41 | 38.76795 | -9.13137 | 337 ft | 5 kts | 219° |
| 2026-05-04 08:41 | 38.76772 | -9.13214 | 337 ft | 11 kts | 257° |
| 2026-05-04 08:41 | 38.76762 | -9.13273 | 341 ft | 9 kts | 258° |
| 2026-05-04 08:41 | 38.76752 | -9.13339 | 342 ft | 6 kts | 259° |
| 2026-05-04 08:42 | 38.76724 | -9.13402 | 349 ft | 16 kts | 225° |
| 2026-05-04 08:42 | 38.76651 | -9.13509 | 349 ft | 16 kts | 254° |
| 2026-05-04 08:42 | 38.76631 | -9.13627 | 350 ft | 12 kts | 257° |
| 2026-05-04 08:42 | 38.76614 | -9.13722 | 351 ft | 10 kts | 257° |
| 2026-05-04 08:43 | 38.76601 | -9.13799 | 346 ft | 8 kts | 260° |
| 2026-05-04 08:43 | 38.76589 | -9.13888 | 346 ft | 13 kts | 258° |
| 2026-05-04 08:43 | 38.76558 | -9.14014 | 353 ft | 16 kts | 237° |
| 2026-05-04 08:43 | 38.76494 | -9.14126 | 348 ft | 15 kts | 258° |
| 2026-05-04 08:44 | 38.76524 | -9.14261 | 338 ft | 17 kts | 294° |
| 2026-05-04 08:44 | 38.76539 | -9.14306 | 336 ft | 0 kts | 292° |
| 2026-05-04 08:46 | 38.77118 | -9.14135 | 359 ft | 102 kts | 22° |
| 2026-05-04 08:46 | 38.77960 | -9.13687 | 369 ft | 158 kts | 22° |
| 2026-05-04 08:46 | 38.79059 | -9.13086 | 685 ft | 180 kts | 22° |
| 2026-05-04 08:46 | 38.80219 | -9.12453 | 1431 ft | 181 kts | 21° |
| 2026-05-04 08:47 | 38.81385 | -9.11823 | 2197 ft | 183 kts | 23° |
| 2026-05-04 08:47 | 38.82566 | -9.11016 | 2609 ft | 204 kts | 29° |
| 2026-05-04 08:47 | 38.83750 | -9.10114 | 2859 ft | 232 kts | 30° |
| 2026-05-04 08:47 | 38.85231 | -9.08976 | 3314 ft | 257 kts | 30° |
| 2026-05-04 08:48 | 38.86754 | -9.07689 | 4126 ft | 266 kts | 41° |
| 2026-05-04 08:48 | 38.87842 | -9.05758 | 5018 ft | 273 kts | 68° |
| 2026-05-04 08:48 | 38.88154 | -9.03388 | 5966 ft | 277 kts | 95° |
| 2026-05-04 08:48 | 38.87598 | -9.01029 | 6878 ft | 280 kts | 119° |
| 2026-05-04 08:49 | 38.86518 | -8.98949 | 7791 ft | 282 kts | 134° |
| 2026-05-04 08:50 | 38.75100 | -9.00638 | 10615 ft | 328 kts | 204° |
| 2026-05-04 08:50 | 38.72990 | -9.01787 | 11446 ft | 331 kts | 204° |
| 2026-05-04 08:51 | 38.70853 | -9.02937 | 12233 ft | 335 kts | 203° |
| 2026-05-04 08:51 | 38.68685 | -9.04095 | 13007 ft | 339 kts | 203° |
| 2026-05-04 08:51 | 38.66495 | -9.05262 | 13750 ft | 343 kts | 203° |
| 2026-05-04 08:51 | 38.64282 | -9.06438 | 14470 ft | 347 kts | 203° |
| 2026-05-04 08:52 | 38.62040 | -9.07635 | 15173 ft | 350 kts | 203° |
| 2026-05-04 08:52 | 38.59776 | -9.08848 | 15856 ft | 354 kts | 203° |
| 2026-05-04 08:52 | 38.57491 | -9.10070 | 16517 ft | 358 kts | 203° |
| 2026-05-04 08:52 | 38.55183 | -9.11300 | 17166 ft | 361 kts | 203° |
| 2026-05-04 08:53 | 38.52850 | -9.12542 | 17801 ft | 365 kts | 203° |
| 2026-05-04 08:54 | 38.36771 | -9.23442 | 21908 ft | 387 kts | 218° |
| 2026-05-04 08:55 | 38.34625 | -9.25542 | 22452 ft | 390 kts | 218° |
| 2026-05-04 08:55 | 38.32462 | -9.27655 | 22986 ft | 394 kts | 218° |
| 2026-05-04 08:55 | 38.30279 | -9.29782 | 23501 ft | 397 kts | 218° |
| 2026-05-04 08:55 | 38.28078 | -9.31921 | 23994 ft | 400 kts | 218° |
| 2026-05-04 08:57 | 38.12231 | -9.47277 | 27013 ft | 419 kts | 218° |
| 2026-05-04 09:01 | 37.79412 | -9.81040 | 31492 ft | 449 kts | 220° |
| 2026-05-04 09:01 | 37.77009 | -9.83570 | 31792 ft | 450 kts | 220° |
| 2026-05-04 09:01 | 37.74607 | -9.86103 | 32150 ft | 449 kts | 220° |
| 2026-05-04 09:01 | 37.72214 | -9.88631 | 32501 ft | 448 kts | 220° |
| 2026-05-04 09:02 | 37.69827 | -9.91154 | 32848 ft | 447 kts | 220° |
| 2026-05-04 09:02 | 37.67444 | -9.93671 | 33184 ft | 446 kts | 220° |
| 2026-05-04 09:02 | 37.65065 | -9.96184 | 33510 ft | 445 kts | 220° |
| 2026-05-04 09:02 | 37.62741 | -9.98753 | 33836 ft | 445 kts | 225° |
| 2026-05-04 09:03 | 37.60710 | -10.01684 | 34155 ft | 444 kts | 232° |
| 2026-05-04 09:03 | 37.58789 | -10.04735 | 34473 ft | 443 kts | 232° |
| 2026-05-04 09:03 | 37.56870 | -10.07761 | 34772 ft | 442 kts | 231° |
| 2026-05-04 09:03 | 37.54944 | -10.10788 | 35067 ft | 442 kts | 231° |
| 2026-05-04 09:04 | 37.53022 | -10.13803 | 35364 ft | 441 kts | 231° |
| 2026-05-04 09:04 | 37.51104 | -10.16813 | 35633 ft | 441 kts | 231° |
| 2026-05-04 09:04 | 37.49185 | -10.19824 | 35896 ft | 440 kts | 231° |
| 2026-05-04 09:04 | 37.47270 | -10.22828 | 36151 ft | 440 kts | 231° |
| 2026-05-04 09:05 | 37.45359 | -10.25826 | 36389 ft | 439 kts | 231° |
| 2026-05-04 09:05 | 37.43445 | -10.28824 | 36613 ft | 439 kts | 231° |
| 2026-05-04 09:05 | 37.41531 | -10.31817 | 36829 ft | 439 kts | 231° |
| 2026-05-04 09:05 | 37.39615 | -10.34806 | 36977 ft | 440 kts | 231° |
| 2026-05-04 09:06 | 37.37694 | -10.37793 | 37011 ft | 437 kts | 231° |
| 2026-05-04 09:08 | 37.22443 | -10.61490 | 37009 ft | 436 kts | 231° |
| 2026-05-04 09:08 | 37.18620 | -10.67402 | 37011 ft | 436 kts | 231° |
| 2026-05-04 09:09 | 37.14804 | -10.73306 | 37012 ft | 436 kts | 231° |
| 2026-05-04 09:09 | 37.11008 | -10.79172 | 37013 ft | 436 kts | 231° |
| 2026-05-04 09:10 | 37.07179 | -10.85058 | 37013 ft | 436 kts | 231° |
| 2026-05-04 09:10 | 37.03344 | -10.90931 | 37014 ft | 436 kts | 231° |
| 2026-05-04 09:11 | 36.99502 | -10.96807 | 37014 ft | 436 kts | 231° |
| 2026-05-04 09:11 | 36.95673 | -11.02682 | 37015 ft | 436 kts | 231° |
| 2026-05-04 09:12 | 36.91841 | -11.08557 | 37015 ft | 436 kts | 231° |
| 2026-05-04 09:14 | 36.76446 | -11.31968 | 37015 ft | 436 kts | 231° |
| 2026-05-04 09:14 | 36.72597 | -11.37805 | 37015 ft | 436 kts | 231° |
| 2026-05-04 09:15 | 36.68741 | -11.43636 | 37015 ft | 436 kts | 231° |
| 2026-05-04 09:15 | 36.64878 | -11.49458 | 37015 ft | 436 kts | 231° |
| 2026-05-04 09:17 | 36.47476 | -11.75601 | 37015 ft | 436 kts | 231° |
| 2026-05-04 09:18 | 36.43602 | -11.81393 | 37015 ft | 436 kts | 230° |
| 2026-05-04 09:18 | 36.39721 | -11.87186 | 37015 ft | 436 kts | 231° |
| 2026-05-04 09:19 | 36.35847 | -11.92966 | 37015 ft | 436 kts | 230° |
| 2026-05-04 09:19 | 36.31964 | -11.98747 | 37015 ft | 436 kts | 230° |
| 2026-05-04 09:20 | 36.28082 | -12.04513 | 37015 ft | 436 kts | 230° |
| 2026-05-04 09:20 | 36.24191 | -12.10275 | 37016 ft | 436 kts | 230° |
| 2026-05-04 09:21 | 36.20305 | -12.16026 | 37015 ft | 436 kts | 230° |
| 2026-05-04 09:21 | 36.16440 | -12.21748 | 37015 ft | 436 kts | 230° |
| 2026-05-04 09:22 | 36.12516 | -12.27529 | 37015 ft | 436 kts | 230° |
| 2026-05-04 09:22 | 36.08639 | -12.33228 | 37016 ft | 436 kts | 230° |
| 2026-05-04 09:23 | 36.04741 | -12.38962 | 37015 ft | 436 kts | 230° |
| 2026-05-04 09:23 | 36.00832 | -12.44692 | 37016 ft | 436 kts | 230° |
| 2026-05-04 09:25 | 35.85851 | -12.66592 | 37016 ft | 436 kts | 230° |
| 2026-05-04 09:26 | 35.81937 | -12.72283 | 37016 ft | 436 kts | 230° |
| 2026-05-04 09:26 | 35.78016 | -12.77982 | 37016 ft | 436 kts | 230° |
| 2026-05-04 09:27 | 35.74099 | -12.83671 | 37016 ft | 436 kts | 230° |
| 2026-05-04 09:27 | 35.70172 | -12.89350 | 37016 ft | 436 kts | 230° |
| 2026-05-04 09:28 | 35.66245 | -12.95027 | 37016 ft | 436 kts | 230° |
| 2026-05-04 09:28 | 35.62321 | -13.00703 | 37016 ft | 436 kts | 230° |
| 2026-05-04 09:29 | 35.58391 | -13.06371 | 37016 ft | 436 kts | 230° |
| 2026-05-04 09:29 | 35.54459 | -13.12035 | 37016 ft | 436 kts | 230° |
| 2026-05-04 09:30 | 35.50583 | -13.17600 | 37016 ft | 436 kts | 230° |
| 2026-05-04 09:30 | 35.46640 | -13.23245 | 37016 ft | 435 kts | 230° |
| 2026-05-04 09:31 | 35.42698 | -13.28884 | 37016 ft | 435 kts | 230° |
| 2026-05-04 09:31 | 35.38758 | -13.34528 | 37016 ft | 435 kts | 230° |
| 2026-05-04 09:32 | 35.34808 | -13.40156 | 37016 ft | 435 kts | 230° |
| 2026-05-04 09:34 | 35.18997 | -13.62627 | 37016 ft | 435 kts | 229° |
| 2026-05-04 09:34 | 35.15037 | -13.68232 | 37016 ft | 435 kts | 229° |
| 2026-05-04 09:35 | 35.11072 | -13.73826 | 37016 ft | 435 kts | 229° |
| 2026-05-04 09:35 | 35.07107 | -13.79415 | 37016 ft | 435 kts | 229° |
| 2026-05-04 09:37 | 34.91230 | -14.01726 | 37016 ft | 435 kts | 229° |
| 2026-05-04 09:38 | 34.87253 | -14.07295 | 37016 ft | 435 kts | 229° |
| 2026-05-04 09:38 | 34.83278 | -14.12860 | 37016 ft | 435 kts | 229° |
| 2026-05-04 09:39 | 34.79319 | -14.18387 | 37016 ft | 435 kts | 229° |
| 2026-05-04 09:39 | 34.75330 | -14.23925 | 37016 ft | 435 kts | 229° |
| 2026-05-04 09:40 | 34.71339 | -14.29472 | 37016 ft | 435 kts | 229° |
| 2026-05-04 09:40 | 34.67360 | -14.35010 | 37016 ft | 435 kts | 229° |
| 2026-05-04 09:42 | 34.51396 | -14.57077 | 37016 ft | 435 kts | 229° |
| 2026-05-04 09:43 | 34.47394 | -14.62593 | 37016 ft | 435 kts | 229° |
| 2026-05-04 09:43 | 34.43435 | -14.68042 | 37016 ft | 435 kts | 229° |
| 2026-05-04 09:44 | 34.39428 | -14.73540 | 37016 ft | 435 kts | 228° |
| 2026-05-04 09:46 | 34.22663 | -14.94684 | 37016 ft | 435 kts | 227° |
| 2026-05-04 09:46 | 34.18485 | -14.99975 | 37017 ft | 435 kts | 226° |
| 2026-05-04 09:47 | 34.14297 | -15.05263 | 37016 ft | 435 kts | 226° |
| 2026-05-04 09:49 | 33.97459 | -15.26348 | 36999 ft | 438 kts | 226° |
| 2026-05-04 09:51 | 33.82608 | -15.44844 | 37010 ft | 439 kts | 226° |
| 2026-05-04 09:51 | 33.78357 | -15.50122 | 37013 ft | 439 kts | 226° |
| 2026-05-04 09:52 | 33.74109 | -15.55393 | 37014 ft | 439 kts | 226° |
| 2026-05-04 09:52 | 33.69851 | -15.60662 | 37015 ft | 439 kts | 226° |
| 2026-05-04 09:53 | 33.65589 | -15.65931 | 37016 ft | 439 kts | 226° |
| 2026-05-04 09:53 | 33.61332 | -15.71192 | 37017 ft | 439 kts | 226° |
| 2026-05-04 09:54 | 33.57065 | -15.76441 | 37017 ft | 439 kts | 226° |
| 2026-05-04 09:54 | 33.52795 | -15.81614 | 37017 ft | 439 kts | 225° |
| 2026-05-04 09:55 | 33.48415 | -15.86730 | 37017 ft | 439 kts | 224° |
| 2026-05-04 09:55 | 33.44022 | -15.91821 | 37017 ft | 439 kts | 224° |
| 2026-05-04 09:56 | 33.39645 | -15.96926 | 37017 ft | 439 kts | 225° |
| 2026-05-04 09:56 | 33.35277 | -16.02036 | 37017 ft | 439 kts | 225° |
| 2026-05-04 09:57 | 33.30906 | -16.07142 | 37017 ft | 439 kts | 224° |
| 2026-05-04 09:57 | 33.26526 | -16.12237 | 37017 ft | 439 kts | 224° |
| 2026-05-04 09:58 | 33.22150 | -16.17326 | 37017 ft | 439 kts | 224° |
| 2026-05-04 09:58 | 33.17770 | -16.22417 | 37017 ft | 439 kts | 224° |
| 2026-05-04 10:00 | 33.00238 | -16.42675 | 37015 ft | 439 kts | 224° |
| 2026-05-04 10:02 | 32.84858 | -16.59825 | 34345 ft | 404 kts | 229° |
| 2026-05-04 10:04 | 32.88151 | -16.78578 | 32231 ft | 378 kts | 337° |
| 2026-05-04 10:04 | 32.90661 | -16.79433 | 31607 ft | 374 kts | 352° |
| 2026-05-04 10:04 | 32.93246 | -16.79472 | 30880 ft | 371 kts | 8° |
| 2026-05-04 10:04 | 32.95727 | -16.78714 | 30162 ft | 368 kts | 22° |
| 2026-05-04 10:05 | 32.97223 | -16.77801 | 29822 ft | 361 kts | 33° |
| 2026-05-04 10:05 | 32.99230 | -16.76047 | 29567 ft | 357 kts | 39° |
| 2026-05-04 10:05 | 33.01115 | -16.74128 | 29306 ft | 355 kts | 41° |
| 2026-05-04 10:05 | 33.02917 | -16.72130 | 28975 ft | 353 kts | 43° |
| 2026-05-04 10:06 | 33.04677 | -16.70109 | 28453 ft | 349 kts | 44° |
| 2026-05-04 10:06 | 33.06416 | -16.68105 | 27778 ft | 345 kts | 43° |
| 2026-05-04 10:06 | 33.08087 | -16.66075 | 27201 ft | 338 kts | 52° |
| 2026-05-04 10:08 | 33.08192 | -16.51025 | 24583 ft | 318 kts | 131° |
| 2026-05-04 10:08 | 33.06622 | -16.49223 | 24174 ft | 308 kts | 144° |
| 2026-05-04 10:08 | 33.04810 | -16.47884 | 23921 ft | 306 kts | 156° |
| 2026-05-04 10:08 | 33.02821 | -16.47037 | 23648 ft | 303 kts | 168° |
| 2026-05-04 10:09 | 33.00741 | -16.46719 | 23289 ft | 300 kts | 181° |
| 2026-05-04 10:09 | 32.98676 | -16.46929 | 22775 ft | 296 kts | 193° |
| 2026-05-04 10:09 | 32.96727 | -16.47636 | 22185 ft | 292 kts | 205° |
| 2026-05-04 10:09 | 32.94961 | -16.48797 | 21623 ft | 289 kts | 216° |
| 2026-05-04 10:10 | 32.93375 | -16.50248 | 21042 ft | 286 kts | 221° |
| 2026-05-04 10:10 | 32.91891 | -16.51818 | 20493 ft | 284 kts | 224° |
| 2026-05-04 10:10 | 32.90476 | -16.53407 | 20218 ft | 278 kts | 224° |
| 2026-05-04 10:10 | 32.89085 | -16.54988 | 19967 ft | 276 kts | 224° |
| 2026-05-04 10:11 | 32.87717 | -16.56534 | 19720 ft | 274 kts | 224° |
| 2026-05-04 10:11 | 32.86330 | -16.58084 | 19470 ft | 273 kts | 224° |
| 2026-05-04 10:11 | 32.84984 | -16.59659 | 19212 ft | 270 kts | 234° |
| 2026-05-04 10:11 | 32.84163 | -16.61634 | 18959 ft | 267 kts | 259° |
| 2026-05-04 10:12 | 32.84122 | -16.63814 | 18702 ft | 265 kts | 283° |
| 2026-05-04 10:12 | 32.84847 | -16.65802 | 18467 ft | 264 kts | 307° |
| 2026-05-04 10:12 | 32.86202 | -16.67249 | 18168 ft | 264 kts | 332° |
| 2026-05-04 10:12 | 32.87942 | -16.67885 | 17837 ft | 264 kts | 357° |
| 2026-05-04 10:13 | 32.89745 | -16.67585 | 17468 ft | 264 kts | 22° |
| 2026-05-04 10:13 | 32.91289 | -16.66438 | 17071 ft | 264 kts | 40° |
| 2026-05-04 10:13 | 32.92670 | -16.64999 | 16655 ft | 263 kts | 42° |
| 2026-05-04 10:13 | 32.94013 | -16.63520 | 16210 ft | 262 kts | 43° |
| 2026-05-04 10:14 | 32.95336 | -16.62040 | 15777 ft | 261 kts | 43° |
| 2026-05-04 10:14 | 32.96655 | -16.60565 | 15338 ft | 259 kts | 44° |
| 2026-05-04 10:16 | 32.92024 | -16.52190 | 11937 ft | 239 kts | 208° |
| 2026-05-04 10:16 | 32.90670 | -16.53305 | 11429 ft | 237 kts | 221° |
| 2026-05-04 10:16 | 32.89446 | -16.54589 | 11092 ft | 234 kts | 223° |
| 2026-05-04 10:16 | 32.88249 | -16.55915 | 10844 ft | 235 kts | 224° |
| 2026-05-04 10:17 | 32.87058 | -16.57246 | 10591 ft | 235 kts | 224° |
| 2026-05-04 10:17 | 32.85867 | -16.58574 | 10340 ft | 234 kts | 224° |
| 2026-05-04 10:19 | 32.90206 | -16.64062 | 9257 ft | 234 kts | 42° |
| 2026-05-04 10:19 | 32.91408 | -16.62746 | 9139 ft | 235 kts | 42° |
| 2026-05-04 10:19 | 32.92601 | -16.61422 | 9020 ft | 235 kts | 42° |
| 2026-05-04 10:19 | 32.93794 | -16.60098 | 8888 ft | 234 kts | 42° |
| 2026-05-04 10:20 | 32.94922 | -16.58704 | 8758 ft | 234 kts | 58° |
| 2026-05-04 10:20 | 32.95440 | -16.56896 | 8630 ft | 233 kts | 88° |
| 2026-05-04 10:20 | 32.95140 | -16.55028 | 8504 ft | 232 kts | 118° |
| 2026-05-04 10:20 | 32.94113 | -16.53584 | 8380 ft | 230 kts | 148° |
| 2026-05-04 10:21 | 32.92638 | -16.52922 | 8254 ft | 228 kts | 177° |
| 2026-05-04 10:21 | 32.91096 | -16.53192 | 8129 ft | 225 kts | 206° |
| 2026-05-04 10:21 | 32.89826 | -16.54251 | 8008 ft | 225 kts | 223° |
| 2026-05-04 10:21 | 32.88667 | -16.55500 | 7882 ft | 225 kts | 224° |
| 2026-05-04 10:22 | 32.86375 | -16.58029 | 7631 ft | 224 kts | 224° |
| 2026-05-04 10:22 | 32.85245 | -16.59307 | 7493 ft | 223 kts | 230° |
| 2026-05-04 10:22 | 32.84547 | -16.60897 | 7380 ft | 221 kts | 260° |
| 2026-05-04 10:23 | 32.84619 | -16.62694 | 7250 ft | 220 kts | 290° |
| 2026-05-04 10:23 | 32.85444 | -16.64202 | 7120 ft | 220 kts | 320° |
| 2026-05-04 10:25 | 32.94192 | -16.58725 | 6245 ft | 225 kts | 53° |
| 2026-05-04 10:25 | 32.94780 | -16.57024 | 6118 ft | 224 kts | 85° |
| 2026-05-04 10:25 | 32.94547 | -16.55220 | 5991 ft | 223 kts | 117° |
| 2026-05-04 10:25 | 32.93573 | -16.53821 | 5873 ft | 221 kts | 148° |
| 2026-05-04 10:26 | 32.92150 | -16.53213 | 5742 ft | 219 kts | 179° |
| 2026-05-04 10:26 | 32.90681 | -16.53540 | 5617 ft | 216 kts | 209° |
| 2026-05-04 10:26 | 32.89477 | -16.54624 | 5416 ft | 230 kts | 223° |
| 2026-05-04 10:26 | 32.88241 | -16.55972 | 4825 ft | 246 kts | 224° |
| 2026-05-04 10:27 | 32.87026 | -16.57330 | 4527 ft | 230 kts | 227° |
| 2026-05-04 10:27 | 32.86137 | -16.58696 | 4171 ft | 221 kts | 240° |
| 2026-05-04 10:27 | 32.85522 | -16.60347 | 3734 ft | 218 kts | 254° |
| 2026-05-04 10:27 | 32.85234 | -16.62097 | 3423 ft | 213 kts | 260° |
| 2026-05-04 10:28 | 32.84708 | -16.63752 | 3369 ft | 217 kts | 238° |
| 2026-05-04 10:28 | 32.83723 | -16.65108 | 3284 ft | 218 kts | 220° |
| 2026-05-04 10:28 | 32.82449 | -16.66066 | 3194 ft | 212 kts | 206° |
| 2026-05-04 10:28 | 32.81170 | -16.66787 | 3107 ft | 195 kts | 206° |
| 2026-05-04 10:29 | 32.79967 | -16.67481 | 3036 ft | 189 kts | 207° |
| 2026-05-04 10:29 | 32.78796 | -16.68160 | 2925 ft | 183 kts | 207° |
| 2026-05-04 10:29 | 32.77695 | -16.68798 | 2815 ft | 171 kts | 207° |
| 2026-05-04 10:29 | 32.76623 | -16.69372 | 2549 ft | 167 kts | 204° |
| 2026-05-04 10:30 | 32.75557 | -16.69902 | 2182 ft | 167 kts | 207° |
| 2026-05-04 10:30 | 32.74560 | -16.70644 | 1616 ft | 172 kts | 224° |
| 2026-05-04 10:30 | 32.73852 | -16.71742 | 1313 ft | 162 kts | 238° |
| 2026-05-04 10:30 | 32.73322 | -16.72848 | 1081 ft | 146 kts | 239° |
| 2026-05-04 10:31 | 32.72777 | -16.73811 | 907 ft | 137 kts | 234° |
| 2026-05-04 10:31 | 32.72166 | -16.74656 | 660 ft | 134 kts | 227° |
| 2026-05-04 10:32 | 32.69314 | -16.77954 | 169 ft | 9 kts | 170° |
| 2026-05-04 10:33 | 32.69293 | -16.77932 | 169 ft | 9 kts | 122° |
| 2026-05-04 10:33 | 32.69292 | -16.77870 | 169 ft | 7 kts | 78° |
| 2026-05-04 10:33 | 32.69323 | -16.77813 | 169 ft | 9 kts | 46° |
| 2026-05-04 10:33 | 32.69388 | -16.77735 | 169 ft | 13 kts | 46° |
| 2026-05-04 10:34 | 32.69399 | -16.77689 | 169 ft | 0 kts | 114° |
| 2026-05-04 10:34 | 32.69387 | -16.77686 | 169 ft | 4 kts | 162° |
| 2026-05-04 10:34 | 32.69379 | -16.77680 | 169 ft | 4 kts | 149° |
| 2026-05-04 10:34 | 32.69363 | -16.77667 | 169 ft | 2 kts | 139° |
| 2026-05-04 10:35 | 32.69357 | -16.77660 | 169 ft | 1 kts | 138° |
| 2026-05-04 10:35 | 32.69356 | -16.77660 | 169 ft | 0 kts | 138° |